sensor_id;sensor_type;location;lat;lon;timestamp;P1;durP1;ratioP1;P2;durP2;ratioP2
16460;SDS011;8341;42.048;24.650;2023-08-06T00:01:56;9.75;;;7.65;;
16460;SDS011;8341;42.048;24.650;2023-08-06T00:04:23;8.73;;;7.07;;
16460;SDS011;8341;42.048;24.650;2023-08-06T00:06:50;8.15;;;7.30;;
16460;SDS011;8341;42.048;24.650;2023-08-06T00:09:17;9.88;;;7.28;;
16460;SDS011;8341;42.048;24.650;2023-08-06T00:11:44;8.82;;;7.00;;
16460;SDS011;8341;42.048;24.650;2023-08-06T00:14:13;9.32;;;6.82;;
16460;SDS011;8341;42.048;24.650;2023-08-06T00:16:42;8.68;;;6.95;;
16460;SDS011;8341;42.048;24.650;2023-08-06T00:19:10;7.85;;;6.88;;
16460;SDS011;8341;42.048;24.650;2023-08-06T00:21:37;7.63;;;6.85;;
16460;SDS011;8341;42.048;24.650;2023-08-06T00:24:04;8.25;;;7.30;;
16460;SDS011;8341;42.048;24.650;2023-08-06T00:26:32;7.93;;;7.13;;
16460;SDS011;8341;42.048;24.650;2023-08-06T00:28:58;10.80;;;6.82;;
16460;SDS011;8341;42.048;24.650;2023-08-06T00:31:27;8.88;;;6.80;;
16460;SDS011;8341;42.048;24.650;2023-08-06T00:33:54;7.97;;;6.55;;
16460;SDS011;8341;42.048;24.650;2023-08-06T00:36:21;9.32;;;6.55;;
16460;SDS011;8341;42.048;24.650;2023-08-06T00:38:48;9.13;;;6.70;;
16460;SDS011;8341;42.048;24.650;2023-08-06T00:41:15;8.98;;;6.53;;
16460;SDS011;8341;42.048;24.650;2023-08-06T00:43:42;7.40;;;6.80;;
16460;SDS011;8341;42.048;24.650;2023-08-06T00:46:09;9.38;;;6.60;;
16460;SDS011;8341;42.048;24.650;2023-08-06T00:48:38;9.00;;;7.30;;
16460;SDS011;8341;42.048;24.650;2023-08-06T00:51:07;7.25;;;6.57;;
16460;SDS011;8341;42.048;24.650;2023-08-06T00:53:36;14.77;;;8.25;;
16460;SDS011;8341;42.048;24.650;2023-08-06T00:56:04;14.90;;;7.78;;
16460;SDS011;8341;42.048;24.650;2023-08-06T00:58:31;9.70;;;7.30;;
16460;SDS011;8341;42.048;24.650;2023-08-06T01:00:59;11.15;;;7.65;;
16460;SDS011;8341;42.048;24.650;2023-08-06T01:03:26;11.48;;;8.20;;
16460;SDS011;8341;42.048;24.650;2023-08-06T01:05:55;9.15;;;7.40;;
16460;SDS011;8341;42.048;24.650;2023-08-06T01:08:26;8.38;;;7.60;;
16460;SDS011;8341;42.048;24.650;2023-08-06T01:11:06;8.00;;;6.72;;
16460;SDS011;8341;42.048;24.650;2023-08-06T01:13:41;9.93;;;7.60;;
16460;SDS011;8341;42.048;24.650;2023-08-06T01:16:12;11.65;;;7.55;;
16460;SDS011;8341;42.048;24.650;2023-08-06T01:18:42;8.40;;;7.30;;
16460;SDS011;8341;42.048;24.650;2023-08-06T01:21:12;8.73;;;6.93;;
16460;SDS011;8341;42.048;24.650;2023-08-06T01:23:40;10.70;;;7.20;;
16460;SDS011;8341;42.048;24.650;2023-08-06T01:26:11;8.20;;;6.93;;
16460;SDS011;8341;42.048;24.650;2023-08-06T01:28:44;8.63;;;7.50;;
16460;SDS011;8341;42.048;24.650;2023-08-06T01:31:18;10.13;;;7.43;;
16460;SDS011;8341;42.048;24.650;2023-08-06T01:33:50;9.20;;;8.00;;
16460;SDS011;8341;42.048;24.650;2023-08-06T01:36:33;9.10;;;8.23;;
16460;SDS011;8341;42.048;24.650;2023-08-06T01:39:01;10.40;;;7.82;;
16460;SDS011;8341;42.048;24.650;2023-08-06T01:41:28;13.07;;;8.95;;
16460;SDS011;8341;42.048;24.650;2023-08-06T01:43:55;11.10;;;8.35;;
16460;SDS011;8341;42.048;24.650;2023-08-06T01:46:22;8.32;;;7.40;;
16460;SDS011;8341;42.048;24.650;2023-08-06T01:48:49;10.48;;;7.57;;
16460;SDS011;8341;42.048;24.650;2023-08-06T01:51:16;9.18;;;7.78;;
16460;SDS011;8341;42.048;24.650;2023-08-06T01:53:45;8.80;;;7.68;;
16460;SDS011;8341;42.048;24.650;2023-08-06T01:56:12;10.25;;;7.75;;
16460;SDS011;8341;42.048;24.650;2023-08-06T01:58:39;8.65;;;7.78;;
16460;SDS011;8341;42.048;24.650;2023-08-06T02:01:06;10.82;;;8.02;;
16460;SDS011;8341;42.048;24.650;2023-08-06T02:03:33;10.27;;;8.07;;
16460;SDS011;8341;42.048;24.650;2023-08-06T02:06:00;11.35;;;8.50;;
16460;SDS011;8341;42.048;24.650;2023-08-06T02:08:27;12.40;;;8.25;;
16460;SDS011;8341;42.048;24.650;2023-08-06T02:10:56;9.75;;;8.38;;
16460;SDS011;8341;42.048;24.650;2023-08-06T02:13:23;13.27;;;8.80;;
16460;SDS011;8341;42.048;24.650;2023-08-06T02:15:50;10.13;;;8.05;;
16460;SDS011;8341;42.048;24.650;2023-08-06T02:18:17;14.70;;;9.70;;
16460;SDS011;8341;42.048;24.650;2023-08-06T02:20:54;10.85;;;9.00;;
16460;SDS011;8341;42.048;24.650;2023-08-06T02:23:22;15.20;;;9.80;;
16460;SDS011;8341;42.048;24.650;2023-08-06T02:25:53;13.60;;;10.25;;
16460;SDS011;8341;42.048;24.650;2023-08-06T02:28:25;11.25;;;9.57;;
16460;SDS011;8341;42.048;24.650;2023-08-06T02:30:52;13.27;;;9.82;;
16460;SDS011;8341;42.048;24.650;2023-08-06T02:33:19;10.93;;;9.18;;
16460;SDS011;8341;42.048;24.650;2023-08-06T02:35:46;12.20;;;10.05;;
16460;SDS011;8341;42.048;24.650;2023-08-06T02:38:13;11.23;;;9.75;;
16460;SDS011;8341;42.048;24.650;2023-08-06T02:40:43;11.52;;;10.25;;
16460;SDS011;8341;42.048;24.650;2023-08-06T02:43:12;11.90;;;10.38;;
16460;SDS011;8341;42.048;24.650;2023-08-06T02:45:40;11.35;;;9.63;;
16460;SDS011;8341;42.048;24.650;2023-08-06T02:48:07;12.10;;;10.00;;
16460;SDS011;8341;42.048;24.650;2023-08-06T02:50:37;11.40;;;10.32;;
16460;SDS011;8341;42.048;24.650;2023-08-06T02:53:05;14.00;;;11.38;;
16460;SDS011;8341;42.048;24.650;2023-08-06T02:55:33;13.98;;;11.80;;
16460;SDS011;8341;42.048;24.650;2023-08-06T02:58:00;14.40;;;11.57;;
16460;SDS011;8341;42.048;24.650;2023-08-06T03:00:28;15.27;;;11.70;;
16460;SDS011;8341;42.048;24.650;2023-08-06T03:02:55;16.70;;;11.15;;
16460;SDS011;8341;42.048;24.650;2023-08-06T03:05:22;12.55;;;11.27;;
16460;SDS011;8341;42.048;24.650;2023-08-06T03:07:49;13.43;;;11.60;;
16460;SDS011;8341;42.048;24.650;2023-08-06T03:10:17;13.65;;;11.95;;
16460;SDS011;8341;42.048;24.650;2023-08-06T03:12:45;13.70;;;12.30;;
16460;SDS011;8341;42.048;24.650;2023-08-06T03:15:12;15.02;;;11.82;;
16460;SDS011;8341;42.048;24.650;2023-08-06T03:17:40;15.05;;;11.77;;
16460;SDS011;8341;42.048;24.650;2023-08-06T03:20:07;16.75;;;12.60;;
16460;SDS011;8341;42.048;24.650;2023-08-06T03:22:35;14.35;;;12.23;;
16460;SDS011;8341;42.048;24.650;2023-08-06T03:25:02;14.48;;;11.90;;
16460;SDS011;8341;42.048;24.650;2023-08-06T03:27:30;12.60;;;11.40;;
16460;SDS011;8341;42.048;24.650;2023-08-06T03:29:57;16.73;;;11.25;;
16460;SDS011;8341;42.048;24.650;2023-08-06T03:32:26;15.35;;;11.93;;
16460;SDS011;8341;42.048;24.650;2023-08-06T03:34:54;12.88;;;11.35;;
16460;SDS011;8341;42.048;24.650;2023-08-06T03:37:21;12.73;;;11.50;;
16460;SDS011;8341;42.048;24.650;2023-08-06T03:39:48;15.70;;;10.98;;
16460;SDS011;8341;42.048;24.650;2023-08-06T03:42:15;12.57;;;11.27;;
16460;SDS011;8341;42.048;24.650;2023-08-06T03:44:42;14.45;;;11.80;;
16460;SDS011;8341;42.048;24.650;2023-08-06T03:47:09;15.73;;;11.05;;
16460;SDS011;8341;42.048;24.650;2023-08-06T03:49:36;13.63;;;11.07;;
16460;SDS011;8341;42.048;24.650;2023-08-06T03:52:05;14.60;;;13.13;;
16460;SDS011;8341;42.048;24.650;2023-08-06T03:54:33;12.85;;;11.45;;
16460;SDS011;8341;42.048;24.650;2023-08-06T03:57:00;13.05;;;11.80;;
16460;SDS011;8341;42.048;24.650;2023-08-06T03:59:27;12.70;;;11.48;;
16460;SDS011;8341;42.048;24.650;2023-08-06T04:01:54;12.68;;;11.15;;
16460;SDS011;8341;42.048;24.650;2023-08-06T04:04:21;13.50;;;12.18;;
16460;SDS011;8341;42.048;24.650;2023-08-06T04:06:48;13.02;;;11.90;;
16460;SDS011;8341;42.048;24.650;2023-08-06T04:09:17;13.23;;;11.90;;
16460;SDS011;8341;42.048;24.650;2023-08-06T04:11:44;16.33;;;14.25;;
16460;SDS011;8341;42.048;24.650;2023-08-06T04:14:11;19.45;;;16.13;;
16460;SDS011;8341;42.048;24.650;2023-08-06T04:16:38;14.82;;;13.38;;
16460;SDS011;8341;42.048;24.650;2023-08-06T04:19:05;18.95;;;15.80;;
16460;SDS011;8341;42.048;24.650;2023-08-06T04:21:32;14.27;;;12.50;;
16460;SDS011;8341;42.048;24.650;2023-08-06T04:23:59;13.68;;;12.38;;
16460;SDS011;8341;42.048;24.650;2023-08-06T04:26:28;12.57;;;11.30;;
16460;SDS011;8341;42.048;24.650;2023-08-06T04:28:55;12.32;;;11.10;;
16460;SDS011;8341;42.048;24.650;2023-08-06T04:31:22;12.23;;;11.02;;
16460;SDS011;8341;42.048;24.650;2023-08-06T04:33:49;13.32;;;12.13;;
16460;SDS011;8341;42.048;24.650;2023-08-06T04:36:16;12.95;;;11.52;;
16460;SDS011;8341;42.048;24.650;2023-08-06T04:38:43;13.25;;;11.80;;
16460;SDS011;8341;42.048;24.650;2023-08-06T04:41:12;13.95;;;12.23;;
16460;SDS011;8341;42.048;24.650;2023-08-06T04:43:41;14.00;;;12.50;;
16460;SDS011;8341;42.048;24.650;2023-08-06T04:46:08;16.05;;;14.52;;
16460;SDS011;8341;42.048;24.650;2023-08-06T04:48:35;18.25;;;14.95;;
16460;SDS011;8341;42.048;24.650;2023-08-06T04:51:02;18.70;;;15.05;;
16460;SDS011;8341;42.048;24.650;2023-08-06T04:53:29;15.77;;;14.27;;
16460;SDS011;8341;42.048;24.650;2023-08-06T04:55:56;15.48;;;13.88;;
16460;SDS011;8341;42.048;24.650;2023-08-06T04:58:23;16.52;;;12.57;;
16460;SDS011;8341;42.048;24.650;2023-08-06T05:00:52;16.38;;;13.57;;
16460;SDS011;8341;42.048;24.650;2023-08-06T05:03:21;17.73;;;15.73;;
16460;SDS011;8341;42.048;24.650;2023-08-06T05:05:48;19.05;;;16.92;;
16460;SDS011;8341;42.048;24.650;2023-08-06T05:08:18;17.00;;;14.75;;
16460;SDS011;8341;42.048;24.650;2023-08-06T05:10:45;13.15;;;11.95;;
16460;SDS011;8341;42.048;24.650;2023-08-06T05:13:12;12.18;;;10.13;;
16460;SDS011;8341;42.048;24.650;2023-08-06T05:15:40;11.15;;;10.05;;
16460;SDS011;8341;42.048;24.650;2023-08-06T05:18:09;10.38;;;9.35;;
16460;SDS011;8341;42.048;24.650;2023-08-06T05:20:36;11.95;;;9.18;;
16460;SDS011;8341;42.048;24.650;2023-08-06T05:23:04;11.50;;;9.40;;
16460;SDS011;8341;42.048;24.650;2023-08-06T05:25:31;10.18;;;9.07;;
16460;SDS011;8341;42.048;24.650;2023-08-06T05:27:58;11.60;;;9.77;;
16460;SDS011;8341;42.048;24.650;2023-08-06T05:30:26;13.88;;;9.93;;
16460;SDS011;8341;42.048;24.650;2023-08-06T05:32:53;13.65;;;10.45;;
16460;SDS011;8341;42.048;24.650;2023-08-06T05:35:22;13.40;;;10.20;;
16460;SDS011;8341;42.048;24.650;2023-08-06T05:37:49;13.80;;;9.23;;
16460;SDS011;8341;42.048;24.650;2023-08-06T05:40:16;10.38;;;7.95;;
16460;SDS011;8341;42.048;24.650;2023-08-06T05:42:43;12.57;;;10.10;;
16460;SDS011;8341;42.048;24.650;2023-08-06T05:45:10;22.90;;;20.17;;
16460;SDS011;8341;42.048;24.650;2023-08-06T05:47:37;21.58;;;19.25;;
16460;SDS011;8341;42.048;24.650;2023-08-06T05:50:05;17.10;;;13.77;;
16460;SDS011;8341;42.048;24.650;2023-08-06T05:52:35;14.98;;;13.48;;
16460;SDS011;8341;42.048;24.650;2023-08-06T05:55:02;14.32;;;10.43;;
16460;SDS011;8341;42.048;24.650;2023-08-06T05:57:30;11.07;;;9.98;;
16460;SDS011;8341;42.048;24.650;2023-08-06T05:59:56;11.38;;;8.57;;
16460;SDS011;8341;42.048;24.650;2023-08-06T06:02:23;8.70;;;7.95;;
16460;SDS011;8341;42.048;24.650;2023-08-06T06:04:50;9.32;;;8.43;;
16460;SDS011;8341;42.048;24.650;2023-08-06T06:07:18;13.52;;;9.40;;
16460;SDS011;8341;42.048;24.650;2023-08-06T06:09:46;12.65;;;9.00;;
16460;SDS011;8341;42.048;24.650;2023-08-06T06:12:13;9.30;;;8.38;;
16460;SDS011;8341;42.048;24.650;2023-08-06T06:14:40;9.95;;;8.82;;
16460;SDS011;8341;42.048;24.650;2023-08-06T06:17:07;10.07;;;9.05;;
16460;SDS011;8341;42.048;24.650;2023-08-06T06:19:34;10.45;;;8.70;;
16460;SDS011;8341;42.048;24.650;2023-08-06T06:22:01;9.70;;;8.80;;
16460;SDS011;8341;42.048;24.650;2023-08-06T06:24:28;9.65;;;8.57;;
16460;SDS011;8341;42.048;24.650;2023-08-06T06:26:56;10.43;;;9.40;;
16460;SDS011;8341;42.048;24.650;2023-08-06T06:29:23;11.23;;;9.68;;
16460;SDS011;8341;42.048;24.650;2023-08-06T06:31:50;12.68;;;10.15;;
16460;SDS011;8341;42.048;24.650;2023-08-06T06:34:17;10.75;;;9.65;;
16460;SDS011;8341;42.048;24.650;2023-08-06T06:36:44;11.80;;;10.50;;
16460;SDS011;8341;42.048;24.650;2023-08-06T06:39:11;10.38;;;9.43;;
16460;SDS011;8341;42.048;24.650;2023-08-06T06:41:38;10.02;;;9.10;;
16460;SDS011;8341;42.048;24.650;2023-08-06T06:44:07;10.85;;;9.75;;
16460;SDS011;8341;42.048;24.650;2023-08-06T06:46:34;10.15;;;8.23;;
16460;SDS011;8341;42.048;24.650;2023-08-06T06:49:01;9.15;;;8.18;;
16460;SDS011;8341;42.048;24.650;2023-08-06T06:51:28;9.80;;;8.73;;
16460;SDS011;8341;42.048;24.650;2023-08-06T06:53:57;13.25;;;8.95;;
16460;SDS011;8341;42.048;24.650;2023-08-06T06:56:23;10.50;;;8.82;;
16460;SDS011;8341;42.048;24.650;2023-08-06T06:58:50;9.40;;;8.40;;
16460;SDS011;8341;42.048;24.650;2023-08-06T07:01:19;12.60;;;9.43;;
16460;SDS011;8341;42.048;24.650;2023-08-06T07:03:46;9.98;;;8.95;;
16460;SDS011;8341;42.048;24.650;2023-08-06T07:06:13;13.70;;;8.75;;
16460;SDS011;8341;42.048;24.650;2023-08-06T07:08:40;10.27;;;9.32;;
16460;SDS011;8341;42.048;24.650;2023-08-06T07:11:08;10.32;;;8.80;;
16460;SDS011;8341;42.048;24.650;2023-08-06T07:13:35;9.95;;;8.98;;
16460;SDS011;8341;42.048;24.650;2023-08-06T07:16:02;9.10;;;8.30;;
16460;SDS011;8341;42.048;24.650;2023-08-06T07:18:30;10.45;;;8.27;;
16460;SDS011;8341;42.048;24.650;2023-08-06T07:20:57;9.20;;;8.18;;
16460;SDS011;8341;42.048;24.650;2023-08-06T07:23:25;8.20;;;7.40;;
16460;SDS011;8341;42.048;24.650;2023-08-06T07:25:53;8.82;;;7.60;;
16460;SDS011;8341;42.048;24.650;2023-08-06T07:28:20;8.52;;;7.13;;
16460;SDS011;8341;42.048;24.650;2023-08-06T07:30:47;7.38;;;6.68;;
16460;SDS011;8341;42.048;24.650;2023-08-06T07:33:14;7.28;;;6.40;;
16460;SDS011;8341;42.048;24.650;2023-08-06T07:35:43;7.50;;;6.47;;
16460;SDS011;8341;42.048;24.650;2023-08-06T07:38:10;7.47;;;6.72;;
16460;SDS011;8341;42.048;24.650;2023-08-06T07:40:37;10.40;;;6.65;;
16460;SDS011;8341;42.048;24.650;2023-08-06T07:43:05;7.68;;;6.97;;
16460;SDS011;8341;42.048;24.650;2023-08-06T07:45:35;7.38;;;6.72;;
16460;SDS011;8341;42.048;24.650;2023-08-06T07:48:02;7.57;;;6.85;;
16460;SDS011;8341;42.048;24.650;2023-08-06T07:50:29;8.30;;;7.38;;
16460;SDS011;8341;42.048;24.650;2023-08-06T07:52:58;8.63;;;7.13;;
16460;SDS011;8341;42.048;24.650;2023-08-06T07:55:25;8.43;;;7.03;;
16460;SDS011;8341;42.048;24.650;2023-08-06T07:57:53;8.13;;;7.30;;
16460;SDS011;8341;42.048;24.650;2023-08-06T08:00:20;7.13;;;6.53;;
16460;SDS011;8341;42.048;24.650;2023-08-06T08:02:47;7.20;;;6.50;;
16460;SDS011;8341;42.048;24.650;2023-08-06T08:05:14;6.45;;;5.72;;
16460;SDS011;8341;42.048;24.650;2023-08-06T08:07:41;6.53;;;6.00;;
16460;SDS011;8341;42.048;24.650;2023-08-06T08:10:10;7.07;;;6.40;;
16460;SDS011;8341;42.048;24.650;2023-08-06T08:12:37;6.53;;;5.93;;
16460;SDS011;8341;42.048;24.650;2023-08-06T08:15:05;6.78;;;5.90;;
16460;SDS011;8341;42.048;24.650;2023-08-06T08:17:32;7.05;;;6.13;;
16460;SDS011;8341;42.048;24.650;2023-08-06T08:19:59;6.45;;;5.82;;
16460;SDS011;8341;42.048;24.650;2023-08-06T08:22:26;10.02;;;6.53;;
16460;SDS011;8341;42.048;24.650;2023-08-06T08:24:53;7.25;;;5.90;;
16460;SDS011;8341;42.048;24.650;2023-08-06T08:27:22;6.40;;;5.80;;
16460;SDS011;8341;42.048;24.650;2023-08-06T08:29:49;5.72;;;5.22;;
16460;SDS011;8341;42.048;24.650;2023-08-06T08:32:16;4.88;;;4.32;;
16460;SDS011;8341;42.048;24.650;2023-08-06T08:34:43;5.40;;;5.00;;
16460;SDS011;8341;42.048;24.650;2023-08-06T08:37:10;5.07;;;4.63;;
16460;SDS011;8341;42.048;24.650;2023-08-06T08:39:37;5.40;;;4.90;;
16460;SDS011;8341;42.048;24.650;2023-08-06T08:42:05;4.90;;;4.50;;
16460;SDS011;8341;42.048;24.650;2023-08-06T08:44:33;4.95;;;4.55;;
16460;SDS011;8341;42.048;24.650;2023-08-06T08:47:04;4.55;;;4.18;;
16460;SDS011;8341;42.048;24.650;2023-08-06T08:49:33;5.38;;;4.82;;
16460;SDS011;8341;42.048;24.650;2023-08-06T08:52:02;5.20;;;4.70;;
16460;SDS011;8341;42.048;24.650;2023-08-06T08:54:31;4.85;;;4.55;;
16460;SDS011;8341;42.048;24.650;2023-08-06T08:56:59;5.03;;;4.63;;
16460;SDS011;8341;42.048;24.650;2023-08-06T08:59:27;6.10;;;4.72;;
16460;SDS011;8341;42.048;24.650;2023-08-06T09:01:56;5.30;;;4.82;;
16460;SDS011;8341;42.048;24.650;2023-08-06T09:04:24;4.72;;;4.32;;
16460;SDS011;8341;42.048;24.650;2023-08-06T09:06:54;4.90;;;4.45;;
16460;SDS011;8341;42.048;24.650;2023-08-06T09:09:25;7.80;;;4.50;;
16460;SDS011;8341;42.048;24.650;2023-08-06T09:11:54;4.38;;;4.07;;
16460;SDS011;8341;42.048;24.650;2023-08-06T09:14:26;4.72;;;4.30;;
16460;SDS011;8341;42.048;24.650;2023-08-06T09:16:53;4.70;;;4.38;;
16460;SDS011;8341;42.048;24.650;2023-08-06T09:19:22;5.32;;;4.85;;
16460;SDS011;8341;42.048;24.650;2023-08-06T09:21:51;5.22;;;4.75;;
16460;SDS011;8341;42.048;24.650;2023-08-06T09:24:21;5.70;;;5.13;;
16460;SDS011;8341;42.048;24.650;2023-08-06T09:26:49;6.13;;;5.57;;
16460;SDS011;8341;42.048;24.650;2023-08-06T09:29:16;4.93;;;4.57;;
16460;SDS011;8341;42.048;24.650;2023-08-06T09:31:43;5.53;;;5.00;;
16460;SDS011;8341;42.048;24.650;2023-08-06T09:34:14;5.43;;;4.95;;
16460;SDS011;8341;42.048;24.650;2023-08-06T09:36:42;5.80;;;5.35;;
16460;SDS011;8341;42.048;24.650;2023-08-06T09:39:12;6.70;;;6.07;;
16460;SDS011;8341;42.048;24.650;2023-08-06T09:41:39;6.25;;;5.65;;
16460;SDS011;8341;42.048;24.650;2023-08-06T09:44:11;10.32;;;6.60;;
16460;SDS011;8341;42.048;24.650;2023-08-06T09:46:46;7.18;;;6.53;;
16460;SDS011;8341;42.048;24.650;2023-08-06T09:49:15;8.23;;;6.72;;
16460;SDS011;8341;42.048;24.650;2023-08-06T09:51:44;7.57;;;6.97;;
16460;SDS011;8341;42.048;24.650;2023-08-06T09:54:12;7.47;;;6.75;;
16460;SDS011;8341;42.048;24.650;2023-08-06T09:56:40;6.65;;;6.15;;
16460;SDS011;8341;42.048;24.650;2023-08-06T09:59:08;6.78;;;6.10;;
16460;SDS011;8341;42.048;24.650;2023-08-06T10:01:36;7.10;;;6.53;;
16460;SDS011;8341;42.048;24.650;2023-08-06T10:04:04;7.07;;;6.50;;
16460;SDS011;8341;42.048;24.650;2023-08-06T10:06:34;7.45;;;6.82;;
16460;SDS011;8341;42.048;24.650;2023-08-06T10:09:02;7.43;;;6.82;;
16460;SDS011;8341;42.048;24.650;2023-08-06T10:11:29;8.07;;;7.38;;
16460;SDS011;8341;42.048;24.650;2023-08-06T10:13:58;8.23;;;7.43;;
16460;SDS011;8341;42.048;24.650;2023-08-06T10:16:30;8.05;;;7.35;;
16460;SDS011;8341;42.048;24.650;2023-08-06T10:18:59;7.40;;;6.80;;
16460;SDS011;8341;42.048;24.650;2023-08-06T10:21:27;7.50;;;6.88;;
16460;SDS011;8341;42.048;24.650;2023-08-06T10:23:57;7.32;;;6.72;;
16460;SDS011;8341;42.048;24.650;2023-08-06T10:26:27;7.15;;;6.65;;
16460;SDS011;8341;42.048;24.650;2023-08-06T10:28:54;8.52;;;7.82;;
16460;SDS011;8341;42.048;24.650;2023-08-06T10:34:25;8.63;;;7.85;;
16460;SDS011;8341;42.048;24.650;2023-08-06T10:36:54;9.07;;;8.25;;
16460;SDS011;8341;42.048;24.650;2023-08-06T10:39:23;7.95;;;7.35;;
16460;SDS011;8341;42.048;24.650;2023-08-06T10:41:50;7.93;;;7.32;;
16460;SDS011;8341;42.048;24.650;2023-08-06T10:44:17;8.38;;;7.68;;
16460;SDS011;8341;42.048;24.650;2023-08-06T10:46:44;8.90;;;8.20;;
16460;SDS011;8341;42.048;24.650;2023-08-06T10:49:15;8.40;;;7.80;;
16460;SDS011;8341;42.048;24.650;2023-08-06T10:51:44;8.85;;;8.15;;
16460;SDS011;8341;42.048;24.650;2023-08-06T10:54:12;9.43;;;8.63;;
16460;SDS011;8341;42.048;24.650;2023-08-06T10:56:41;9.40;;;8.52;;
16460;SDS011;8341;42.048;24.650;2023-08-06T10:59:09;9.05;;;8.25;;
16460;SDS011;8341;42.048;24.650;2023-08-06T11:01:36;9.32;;;8.50;;
16460;SDS011;8341;42.048;24.650;2023-08-06T11:04:05;9.85;;;9.05;;
16460;SDS011;8341;42.048;24.650;2023-08-06T11:06:32;9.60;;;8.80;;
16460;SDS011;8341;42.048;24.650;2023-08-06T11:08:59;10.60;;;9.65;;
16460;SDS011;8341;42.048;24.650;2023-08-06T11:11:28;9.80;;;9.00;;
16460;SDS011;8341;42.048;24.650;2023-08-06T11:13:56;9.70;;;8.85;;
16460;SDS011;8341;42.048;24.650;2023-08-06T11:16:23;10.15;;;9.25;;
16460;SDS011;8341;42.048;24.650;2023-08-06T11:18:51;10.10;;;9.20;;
16460;SDS011;8341;42.048;24.650;2023-08-06T11:21:19;9.93;;;9.00;;
16460;SDS011;8341;42.048;24.650;2023-08-06T11:23:46;9.73;;;8.90;;
16460;SDS011;8341;42.048;24.650;2023-08-06T11:26:18;9.60;;;8.80;;
16460;SDS011;8341;42.048;24.650;2023-08-06T11:28:45;10.05;;;9.15;;
16460;SDS011;8341;42.048;24.650;2023-08-06T11:31:19;9.82;;;8.27;;
16460;SDS011;8341;42.048;24.650;2023-08-06T11:33:46;9.73;;;8.93;;
16460;SDS011;8341;42.048;24.650;2023-08-06T11:36:13;10.10;;;9.00;;
16460;SDS011;8341;42.048;24.650;2023-08-06T11:38:41;9.10;;;8.30;;
16460;SDS011;8341;42.048;24.650;2023-08-06T11:41:08;9.35;;;8.45;;
16460;SDS011;8341;42.048;24.650;2023-08-06T11:43:35;9.45;;;8.65;;
16460;SDS011;8341;42.048;24.650;2023-08-06T11:46:02;9.23;;;8.52;;
16460;SDS011;8341;42.048;24.650;2023-08-06T11:48:30;8.88;;;7.97;;
16460;SDS011;8341;42.048;24.650;2023-08-06T11:50:57;8.18;;;7.50;;
16460;SDS011;8341;42.048;24.650;2023-08-06T11:53:27;7.78;;;7.13;;
16460;SDS011;8341;42.048;24.650;2023-08-06T11:55:54;7.95;;;7.30;;
16460;SDS011;8341;42.048;24.650;2023-08-06T11:58:21;7.10;;;6.60;;
16460;SDS011;8341;42.048;24.650;2023-08-06T12:00:48;7.10;;;6.50;;
16460;SDS011;8341;42.048;24.650;2023-08-06T12:03:15;7.28;;;6.68;;
16460;SDS011;8341;42.048;24.650;2023-08-06T12:05:55;7.53;;;6.97;;
16460;SDS011;8341;42.048;24.650;2023-08-06T12:08:26;9.13;;;6.53;;
16460;SDS011;8341;42.048;24.650;2023-08-06T12:10:54;7.00;;;6.40;;
16460;SDS011;8341;42.048;24.650;2023-08-06T12:13:21;7.00;;;6.40;;
16460;SDS011;8341;42.048;24.650;2023-08-06T12:15:48;6.70;;;6.20;;
16460;SDS011;8341;42.048;24.650;2023-08-06T12:18:18;6.57;;;6.07;;
16460;SDS011;8341;42.048;24.650;2023-08-06T12:20:45;7.18;;;6.57;;
16460;SDS011;8341;42.048;24.650;2023-08-06T12:23:13;6.93;;;6.43;;
16460;SDS011;8341;42.048;24.650;2023-08-06T12:25:41;6.40;;;5.80;;
16460;SDS011;8341;42.048;24.650;2023-08-06T12:28:09;6.60;;;6.00;;
16460;SDS011;8341;42.048;24.650;2023-08-06T12:30:37;6.47;;;5.88;;
16460;SDS011;8341;42.048;24.650;2023-08-06T12:33:09;6.43;;;5.93;;
16460;SDS011;8341;42.048;24.650;2023-08-06T12:35:36;6.20;;;5.70;;
16460;SDS011;8341;42.048;24.650;2023-08-06T12:38:04;6.10;;;5.60;;
16460;SDS011;8341;42.048;24.650;2023-08-06T12:40:34;6.22;;;5.70;;
16460;SDS011;8341;42.048;24.650;2023-08-06T12:43:01;5.88;;;5.43;;
16460;SDS011;8341;42.048;24.650;2023-08-06T12:45:28;5.60;;;5.10;;
16460;SDS011;8341;42.048;24.650;2023-08-06T12:47:55;4.53;;;4.22;;
16460;SDS011;8341;42.048;24.650;2023-08-06T12:50:22;4.10;;;3.80;;
16460;SDS011;8341;42.048;24.650;2023-08-06T12:52:49;4.70;;;4.20;;
16460;SDS011;8341;42.048;24.650;2023-08-06T12:55:17;4.00;;;3.63;;
16460;SDS011;8341;42.048;24.650;2023-08-06T12:57:46;3.78;;;3.50;;
16460;SDS011;8341;42.048;24.650;2023-08-06T13:00:13;4.40;;;3.40;;
16460;SDS011;8341;42.048;24.650;2023-08-06T13:02:41;4.25;;;3.83;;
16460;SDS011;8341;42.048;24.650;2023-08-06T13:05:08;3.88;;;3.47;;
16460;SDS011;8341;42.048;24.650;2023-08-06T13:07:35;3.17;;;2.97;;
16460;SDS011;8341;42.048;24.650;2023-08-06T13:10:02;3.58;;;3.38;;
16460;SDS011;8341;42.048;24.650;2023-08-06T13:12:32;3.63;;;3.35;;
16460;SDS011;8341;42.048;24.650;2023-08-06T13:15:00;3.20;;;3.00;;
16460;SDS011;8341;42.048;24.650;2023-08-06T13:17:27;3.40;;;3.20;;
16460;SDS011;8341;42.048;24.650;2023-08-06T13:20:02;3.60;;;3.38;;
16460;SDS011;8341;42.048;24.650;2023-08-06T13:22:29;3.40;;;3.20;;
16460;SDS011;8341;42.048;24.650;2023-08-06T13:24:56;3.35;;;3.05;;
16460;SDS011;8341;42.048;24.650;2023-08-06T13:27:23;3.47;;;3.17;;
16460;SDS011;8341;42.048;24.650;2023-08-06T13:29:51;3.22;;;3.00;;
16460;SDS011;8341;42.048;24.650;2023-08-06T13:32:21;3.15;;;2.78;;
16460;SDS011;8341;42.048;24.650;2023-08-06T13:34:48;3.45;;;3.15;;
16460;SDS011;8341;42.048;24.650;2023-08-06T13:37:18;3.25;;;2.90;;
16460;SDS011;8341;42.048;24.650;2023-08-06T13:39:45;3.13;;;2.83;;
16460;SDS011;8341;42.048;24.650;2023-08-06T13:42:12;3.85;;;3.55;;
16460;SDS011;8341;42.048;24.650;2023-08-06T13:44:39;3.35;;;3.10;;
16460;SDS011;8341;42.048;24.650;2023-08-06T13:47:06;4.00;;;2.83;;
16460;SDS011;8341;42.048;24.650;2023-08-06T13:49:50;4.45;;;3.05;;
16460;SDS011;8341;42.048;24.650;2023-08-06T13:52:17;2.95;;;2.75;;
16460;SDS011;8341;42.048;24.650;2023-08-06T13:54:44;3.22;;;3.03;;
16460;SDS011;8341;42.048;24.650;2023-08-06T13:57:11;3.13;;;2.92;;
16460;SDS011;8341;42.048;24.650;2023-08-06T13:59:38;3.03;;;2.83;;
16460;SDS011;8341;42.048;24.650;2023-08-06T14:02:06;3.20;;;2.90;;
16460;SDS011;8341;42.048;24.650;2023-08-06T14:04:33;2.90;;;2.70;;
16460;SDS011;8341;42.048;24.650;2023-08-06T14:07:01;2.97;;;2.40;;
16460;SDS011;8341;42.048;24.650;2023-08-06T14:09:28;2.53;;;2.33;;
16460;SDS011;8341;42.048;24.650;2023-08-06T14:11:55;2.92;;;2.60;;
16460;SDS011;8341;42.048;24.650;2023-08-06T14:14:22;3.33;;;2.80;;
16460;SDS011;8341;42.048;24.650;2023-08-06T14:16:52;18.02;;;3.28;;
16460;SDS011;8341;42.048;24.650;2023-08-06T14:19:22;3.47;;;2.60;;
16460;SDS011;8341;42.048;24.650;2023-08-06T14:21:50;2.95;;;2.75;;
16460;SDS011;8341;42.048;24.650;2023-08-06T14:24:18;4.25;;;2.75;;
16460;SDS011;8341;42.048;24.650;2023-08-06T14:26:46;2.60;;;2.40;;
16460;SDS011;8341;42.048;24.650;2023-08-06T14:29:13;2.50;;;2.10;;
16460;SDS011;8341;42.048;24.650;2023-08-06T14:31:40;1.70;;;1.60;;
16460;SDS011;8341;42.048;24.650;2023-08-06T14:34:07;2.25;;;2.08;;
16460;SDS011;8341;42.048;24.650;2023-08-06T14:36:34;2.03;;;1.92;;
16460;SDS011;8341;42.048;24.650;2023-08-06T14:39:02;2.95;;;2.13;;
16460;SDS011;8341;42.048;24.650;2023-08-06T14:41:31;2.60;;;2.08;;
16460;SDS011;8341;42.048;24.650;2023-08-06T14:43:58;2.13;;;2.03;;
16460;SDS011;8341;42.048;24.650;2023-08-06T14:46:25;5.15;;;2.40;;
16460;SDS011;8341;42.048;24.650;2023-08-06T14:48:52;3.65;;;2.30;;